createdAt,value
2022-11-16T00:01:32.596Z,97921.88
2022-11-16T00:04:01.249Z,97922.66
2022-11-16T00:06:29.225Z,97917.16
2022-11-16T00:09:17.768Z,97926.56
2022-11-16T00:11:44.621Z,97922.28
2022-11-16T00:14:11.476Z,97928.94
2022-11-16T00:16:38.705Z,97924.22
2022-11-16T00:19:06.773Z,97911.63
2022-11-16T00:21:34.656Z,97923.44
2022-11-16T00:24:01.644Z,97921.47
2022-11-16T00:26:28.701Z,97929.31
2022-11-16T00:28:56.113Z,97923.41
2022-11-16T00:31:23.758Z,97925.78
2022-11-16T00:33:51.535Z,97918.69
2022-11-16T00:36:18.315Z,97920.28
2022-11-16T00:38:45.085Z,97904.56
2022-11-16T00:41:12.004Z,97916.72
2022-11-16T00:43:38.769Z,97920.28
2022-11-16T00:46:05.759Z,97917.53
2022-11-16T00:48:32.723Z,97920.28
2022-11-16T00:50:59.637Z,97907.31
2022-11-16T00:53:26.446Z,97912.00
2022-11-16T00:55:53.168Z,97905.34
2022-11-16T00:58:21.275Z,97907.69
2022-11-16T01:00:48.032Z,97899.03
2022-11-16T01:03:15.811Z,97892.75
2022-11-16T01:05:43.083Z,97899.44
2022-11-16T01:08:10.329Z,97901.38
2022-11-16T01:10:40.113Z,97903.75
2022-11-16T01:13:07.153Z,97898.25
2022-11-16T01:15:34.072Z,97899.03
2022-11-16T01:18:01.038Z,97907.28
2022-11-16T01:20:29.626Z,97897.47
2022-11-16T01:22:56.653Z,97891.19
2022-11-16T01:25:23.407Z,97893.53
2022-11-16T01:27:50.198Z,97889.59
2022-11-16T01:30:17.116Z,97882.50
2022-11-16T01:32:43.912Z,97885.63
2022-11-16T01:35:18.570Z,97880.53
2022-11-16T01:37:45.534Z,97880.91
2022-11-16T01:40:14.224Z,97872.69
2022-11-16T01:42:41.465Z,97886.00
2022-11-16T01:45:20.117Z,97884.81
2022-11-16T01:47:47.116Z,97883.63
2022-11-16T01:50:17.165Z,97874.19
2022-11-16T01:52:52.033Z,97872.66
2022-11-16T01:55:18.905Z,97876.56
2022-11-16T01:57:47.823Z,97876.94
2022-11-16T02:00:15.596Z,97883.63
2022-11-16T02:02:42.642Z,97874.19
2022-11-16T02:05:12.314Z,97880.47
2022-11-16T02:08:39.246Z,97874.56
2022-11-16T02:11:19.128Z,97874.16
2022-11-16T02:14:11.872Z,97873.75
2022-11-16T02:16:56.556Z,97879.25
2022-11-16T02:19:49.721Z,97876.13
2022-11-16T02:22:42.010Z,97870.63
2022-11-16T02:25:21.581Z,97865.91
2022-11-16T02:28:06.249Z,97871.00
2022-11-16T02:30:33.904Z,97868.25
2022-11-16T02:33:10.791Z,97867.47
2022-11-16T02:35:45.897Z,97866.66
2022-11-16T02:38:19.050Z,97868.25
2022-11-16T02:40:50.261Z,97861.16
2022-11-16T02:43:23.310Z,97861.16
2022-11-16T02:45:54.939Z,97864.31
2022-11-16T02:48:27.336Z,97861.94
2022-11-16T02:50:54.161Z,97860.38
2022-11-16T02:53:22.373Z,97862.75
2022-11-16T02:55:49.130Z,97863.91
2022-11-16T02:58:26.694Z,97859.19
2022-11-16T03:01:08.835Z,97856.00
2022-11-16T03:03:39.866Z,97863.06
2022-11-16T03:06:31.441Z,97858.34
2022-11-16T03:09:07.636Z,97852.47
2022-11-16T03:11:55.097Z,97854.00
2022-11-16T03:14:25.524Z,97843.78
2022-11-16T03:17:00.563Z,97848.06
2022-11-16T03:19:44.675Z,97852.81
2022-11-16T03:22:35.727Z,97847.69
2022-11-16T03:25:04.798Z,97849.63
2022-11-16T03:27:46.175Z,97848.09
2022-11-16T03:30:23.873Z,97850.00
2022-11-16T03:33:06.585Z,97850.78
2022-11-16T03:35:41.748Z,97842.94
2022-11-16T03:38:10.695Z,97842.53
2022-11-16T03:40:38.607Z,97839.41
2022-11-16T03:43:08.018Z,97841.31
2022-11-16T03:45:36.705Z,97844.41
2022-11-16T03:48:03.585Z,97838.09
2022-11-16T03:50:30.265Z,97843.59
2022-11-16T03:52:56.986Z,97843.53
2022-11-16T03:55:24.791Z,97851.34
2022-11-16T03:57:51.500Z,97839.59
2022-11-16T04:00:18.410Z,97845.88
2022-11-16T04:02:45.246Z,97849.78
2022-11-16T04:05:30.815Z,97845.06
2022-11-16T04:08:16.290Z,97848.19
2022-11-16T04:11:02.212Z,97848.94
2022-11-16T04:13:50.270Z,97853.25
2022-11-16T04:16:35.746Z,97847.34
2022-11-16T04:19:21.308Z,97843.81
2022-11-16T04:22:14.969Z,97848.06
2022-11-16T04:24:45.958Z,97857.47
2022-11-16T04:27:34.253Z,97860.22
2022-11-16T04:30:03.001Z,97858.66
2022-11-16T04:32:48.647Z,97862.91
2022-11-16T04:35:33.964Z,97860.94
2022-11-16T04:38:00.963Z,97854.22
2022-11-16T04:40:29.670Z,97862.03
2022-11-16T04:42:58.562Z,97856.19
2022-11-16T04:45:45.448Z,97863.22
2022-11-16T04:48:13.444Z,97849.47
2022-11-16T04:50:40.957Z,97862.78
2022-11-16T04:53:08.314Z,97860.84
2022-11-16T04:55:35.666Z,97870.56
2022-11-16T04:58:02.925Z,97869.81
2022-11-16T05:00:30.105Z,97867.84
2022-11-16T05:03:01.080Z,97874.13
2022-11-16T05:05:28.470Z,97871.75
2022-11-16T05:07:55.561Z,97872.56
2022-11-16T05:10:22.453Z,97872.13
2022-11-16T05:12:50.343Z,97877.59
2022-11-16T05:15:19.895Z,97876.41
2022-11-16T05:17:47.466Z,97885.38
2022-11-16T05:20:50.339Z,97880.69
2022-11-16T05:23:35.746Z,97885.78
2022-11-16T05:26:02.577Z,97889.31
2022-11-16T05:28:29.329Z,97894.00
2022-11-16T05:30:56.196Z,97884.19
2022-11-16T05:33:24.254Z,97891.66
2022-11-16T05:35:51.638Z,97894.75
2022-11-16T05:38:19.779Z,97886.94
2022-11-16T05:40:46.700Z,97886.13
2022-11-16T05:43:13.592Z,97886.88
2022-11-16T05:45:40.276Z,97891.56
2022-11-16T05:48:08.193Z,97890.72
2022-11-16T05:50:39.875Z,97880.16
2022-11-16T05:53:09.261Z,97884.03
2022-11-16T05:55:36.301Z,97888.31
2022-11-16T05:58:03.017Z,97890.25
2022-11-16T06:00:30.764Z,97893.75
2022-11-16T06:02:57.591Z,97891.34
2022-11-16T06:05:24.425Z,97896.03
2022-11-16T06:07:51.131Z,97892.16
2022-11-16T06:10:17.804Z,97885.88
2022-11-16T06:12:44.560Z,97883.19
2022-11-16T06:15:11.293Z,97886.66
2022-11-16T06:17:38.036Z,97880.41
2022-11-16T06:20:05.072Z,97890.16
2022-11-16T06:22:31.889Z,97890.91
2022-11-16T06:24:58.641Z,97892.09
2022-11-16T06:27:25.361Z,97895.94
2022-11-16T06:29:52.181Z,97896.28
2022-11-16T06:32:18.932Z,97905.28
2022-11-16T06:34:45.671Z,97901.75
2022-11-16T06:37:12.371Z,97903.69
2022-11-16T06:39:39.106Z,97904.81
2022-11-16T06:42:05.843Z,97905.97
2022-11-16T06:44:32.612Z,97898.16
2022-11-16T06:46:59.312Z,97902.06
2022-11-16T06:49:26.052Z,97905.22
2022-11-16T06:51:52.763Z,97915.75
2022-11-16T06:54:19.448Z,97911.78
2022-11-16T06:56:46.211Z,97919.94
2022-11-16T06:59:12.954Z,97921.13
2022-11-16T07:01:39.683Z,97925.41
2022-11-16T07:04:06.472Z,97921.13
2022-11-16T07:06:33.228Z,97921.88
2022-11-16T07:09:01.009Z,97926.94
2022-11-16T07:11:27.797Z,97925.41
2022-11-16T07:13:54.845Z,97927.75
2022-11-16T07:16:22.139Z,97919.91
2022-11-16T07:18:48.872Z,97915.19
2022-11-16T07:21:17.521Z,97914.44
2022-11-16T07:23:44.359Z,97916.75
2022-11-16T07:26:11.925Z,97924.53
2022-11-16T07:28:43.379Z,97920.22
2022-11-16T07:31:14.860Z,97929.97
2022-11-16T07:33:41.588Z,97923.72
2022-11-16T07:36:13.798Z,97928.41
2022-11-16T07:38:40.523Z,97932.28
2022-11-16T07:41:11.401Z,97935.41
2022-11-16T07:43:38.189Z,97931.88
2022-11-16T07:46:44.654Z,97933.84
2022-11-16T07:48:53.464Z,97934.56
2022-11-16T07:51:20.452Z,97935.38
2022-11-16T07:53:47.168Z,97938.50
2022-11-16T07:56:14.007Z,97940.03
2022-11-16T07:58:41.026Z,97937.75
2022-11-16T08:01:15.640Z,97927.53
2022-11-16T08:03:44.264Z,97947.13
2022-11-16T08:06:31.617Z,97942.44
2022-11-16T08:08:59.348Z,97940.03
2022-11-16T08:11:26.553Z,97937.31
2022-11-16T08:13:53.508Z,97938.91
2022-11-16T08:16:22.286Z,97926.75
2022-11-16T08:18:49.476Z,97934.56
2022-11-16T08:21:18.027Z,97922.47
2022-11-16T08:23:46.553Z,97927.16
2022-11-16T08:26:17.004Z,97933.84
2022-11-16T08:28:45.820Z,97938.56
2022-11-16T08:31:15.219Z,97931.94
2022-11-16T08:33:42.059Z,97928.41
2022-11-16T08:36:14.179Z,97925.66
2022-11-16T08:38:41.327Z,97924.50
2022-11-16T08:41:08.145Z,97931.59
2022-11-16T08:43:36.069Z,97926.53
2022-11-16T08:46:03.340Z,97932.81
2022-11-16T08:48:30.664Z,97934.03
2022-11-16T08:51:19.264Z,97930.91
2022-11-16T08:53:48.662Z,97926.25
2022-11-16T08:56:17.181Z,97918.47
2022-11-16T08:58:44.460Z,97926.28
2022-11-16T09:01:19.170Z,97934.16
2022-11-16T09:03:46.847Z,97931.53
2022-11-16T09:06:14.266Z,97935.09
2022-11-16T09:08:43.061Z,97935.53
2022-11-16T09:11:13.973Z,97940.66
2022-11-16T09:13:40.767Z,97947.81
2022-11-16T09:16:08.126Z,97947.47
2022-11-16T09:18:36.187Z,97945.94
2022-11-16T09:21:03.898Z,97943.25
2022-11-16T09:23:30.828Z,97946.44
2022-11-16T09:26:01.341Z,97944.50
2022-11-16T09:28:28.374Z,97942.25
2022-11-16T09:31:04.142Z,97953.69
2022-11-16T09:33:32.961Z,97946.66
2022-11-16T09:36:07.185Z,97945.50
2022-11-16T09:39:13.889Z,97949.44
2022-11-16T09:41:44.322Z,97946.00
2022-11-16T09:44:24.343Z,97942.50
2022-11-16T09:46:57.241Z,97939.09
2022-11-16T09:49:50.835Z,97950.91
2022-11-16T09:52:26.515Z,97941.13
2022-11-16T09:54:55.057Z,97936.09
2022-11-16T09:57:28.395Z,97951.03
2022-11-16T10:00:02.166Z,97959.31
2022-11-16T10:02:40.139Z,97948.34
2022-11-16T10:05:32.975Z,97952.72
2022-11-16T10:08:04.516Z,97950.78
2022-11-16T10:10:38.990Z,97943.34
2022-11-16T10:13:11.705Z,97950.41
2022-11-16T10:16:08.751Z,97941.06
2022-11-16T10:18:42.716Z,97939.91
2022-11-16T10:21:18.743Z,97939.13
2022-11-16T10:24:14.605Z,97949.75
2022-11-16T10:26:55.495Z,97947.84
2022-11-16T10:29:50.048Z,97948.25
2022-11-16T10:32:34.153Z,97951.44
2022-11-16T10:35:13.024Z,97947.53
2022-11-16T10:37:46.847Z,97953.81
2022-11-16T10:40:23.262Z,97951.47
2022-11-16T10:43:11.902Z,97949.94
2022-11-16T10:46:13.801Z,97957.06
2022-11-16T10:48:54.391Z,97958.69
2022-11-16T10:51:21.130Z,97956.75
2022-11-16T10:53:47.959Z,97942.97
2022-11-16T10:56:40.532Z,97944.19
2022-11-16T10:59:09.222Z,97948.13
2022-11-16T11:01:50.211Z,97938.72
2022-11-16T11:04:23.699Z,97940.69
2022-11-16T11:06:59.182Z,97944.59
2022-11-16T11:09:30.586Z,97941.13
2022-11-16T11:12:54.208Z,97932.84
2022-11-16T11:15:26.537Z,97927.34
2022-11-16T11:18:19.940Z,97910.84
2022-11-16T11:20:53.027Z,97892.75
2022-11-16T11:23:25.336Z,97895.94
2022-11-16T11:25:58.771Z,97899.44
2022-11-16T11:28:32.854Z,97906.13
2022-11-16T11:31:11.735Z,97895.94
2022-11-16T11:33:44.362Z,97887.28
2022-11-16T11:36:20.670Z,97888.84
2022-11-16T11:39:00.295Z,97884.13
2022-11-16T11:41:34.123Z,97888.84
2022-11-16T11:44:06.916Z,97876.28
2022-11-16T11:47:18.210Z,97875.88
2022-11-16T11:49:34.024Z,97876.25
2022-11-16T11:52:11.803Z,97863.25
2022-11-16T11:54:46.076Z,97871.16
2022-11-16T11:57:23.097Z,97860.13
2022-11-16T11:59:54.465Z,97860.13
2022-11-16T12:02:42.739Z,97864.41
2022-11-16T12:05:15.573Z,97865.22
2022-11-16T12:07:54.342Z,97853.00
2022-11-16T12:10:39.614Z,97840.81
2022-11-16T12:13:06.294Z,97846.31
2022-11-16T12:15:59.585Z,97845.50
2022-11-16T12:19:03.368Z,97841.16
2022-11-16T12:21:36.500Z,97839.63
2022-11-16T12:24:03.211Z,97844.72
2022-11-16T12:26:46.221Z,97845.47
2022-11-16T12:29:21.803Z,97838.38
2022-11-16T12:32:42.499Z,97843.09
2022-11-16T12:35:11.775Z,97827.31
2022-11-16T12:37:50.413Z,97842.31
2022-11-16T12:40:23.389Z,97832.03
2022-11-16T12:43:16.564Z,97839.91
2022-11-16T12:46:03.104Z,97835.16
2022-11-16T12:48:53.062Z,97839.50
2022-11-16T12:51:50.008Z,97838.72
2022-11-16T12:55:03.967Z,97845.38
2022-11-16T12:57:47.444Z,97842.19
2022-11-16T13:00:16.955Z,97845.31
2022-11-16T13:03:12.432Z,97841.72
2022-11-16T13:05:42.157Z,97842.09
2022-11-16T13:08:33.887Z,97836.53
2022-11-16T13:11:09.489Z,97821.50
2022-11-16T13:13:39.263Z,97815.56
2022-11-16T13:16:07.421Z,97812.75
2022-11-16T13:18:38.656Z,97812.72
2022-11-16T13:21:11.636Z,97816.63
2022-11-16T13:24:19.660Z,97818.88
2022-11-16T13:27:23.426Z,97810.91
2022-11-16T13:29:57.223Z,97809.25
2022-11-16T13:32:32.963Z,97799.28
2022-11-16T13:35:01.193Z,97795.31
2022-11-16T13:37:37.538Z,97784.63
2022-11-16T13:40:07.233Z,97786.88
2022-11-16T13:42:44.910Z,97783.63
2022-11-16T13:45:22.458Z,97783.16
2022-11-16T13:47:52.158Z,97768.44
2022-11-16T13:50:25.168Z,97765.25
2022-11-16T13:54:10.714Z,97772.25
2022-11-16T13:55:58.896Z,97761.94
2022-11-16T13:58:27.185Z,97754.38
2022-11-16T14:01:01.140Z,97754.78
2022-11-16T14:03:31.990Z,97759.88
2022-11-16T14:05:59.043Z,97746.84
2022-11-16T14:08:37.284Z,97750.75
2022-11-16T14:11:05.536Z,97753.81
2022-11-16T14:13:38.389Z,97746.69
2022-11-16T14:16:17.619Z,97753.41
2022-11-16T14:18:48.007Z,97751.56
2022-11-16T14:21:20.532Z,97754.00
2022-11-16T14:24:02.787Z,97757.34
2022-11-16T14:26:40.256Z,97758.66
2022-11-16T14:29:09.921Z,97758.78
2022-11-16T14:31:53.279Z,97760.84
2022-11-16T14:34:41.786Z,97757.81
2022-11-16T14:37:30.119Z,97763.03
2022-11-16T14:40:17.299Z,97759.19
2022-11-16T14:43:09.990Z,97760.44
2022-11-16T14:45:39.086Z,97760.13
2022-11-16T14:48:15.438Z,97766.50
2022-11-16T14:50:45.891Z,97761.81
2022-11-16T14:53:18.194Z,97757.53
2022-11-16T14:55:46.084Z,97759.13
2022-11-16T14:58:23.272Z,97755.63
2022-11-16T15:01:02.631Z,97748.56
2022-11-16T15:03:41.555Z,97741.94
2022-11-16T15:06:08.650Z,97738.78
2022-11-16T15:08:50.442Z,97739.19
2022-11-16T15:11:51.782Z,97743.53
2022-11-16T15:14:22.504Z,97737.66
2022-11-16T15:16:54.662Z,97752.63
2022-11-16T15:19:22.416Z,97748.72
2022-11-16T15:21:57.128Z,97747.97
2022-11-16T15:24:31.557Z,97749.13
2022-11-16T15:27:29.743Z,97742.47
2022-11-16T15:29:56.776Z,97741.28
2022-11-16T15:32:23.527Z,97739.34
2022-11-16T15:34:53.934Z,97742.13
2022-11-16T15:37:30.648Z,97746.47
2022-11-16T15:40:02.646Z,97739.00
2022-11-16T15:42:29.777Z,97737.47
2022-11-16T15:45:00.037Z,97741.44
2022-11-16T15:47:27.676Z,97729.63
2022-11-16T15:49:55.425Z,97734.78
2022-11-16T15:52:53.021Z,97739.50
2022-11-16T15:55:32.004Z,97737.59
2022-11-16T15:58:13.191Z,97736.81
2022-11-16T16:00:40.888Z,97741.16
2022-11-16T16:03:24.121Z,97735.31
2022-11-16T16:05:51.973Z,97738.50
2022-11-16T16:08:35.042Z,97742.06
2022-11-16T16:11:12.263Z,97742.47
2022-11-16T16:13:44.309Z,97748.00
2022-11-16T16:16:24.751Z,97746.47
2022-11-16T16:18:52.312Z,97744.13
2022-11-16T16:21:19.762Z,97744.91
2022-11-16T16:23:52.262Z,97740.19
2022-11-16T16:26:19.253Z,97735.09
2022-11-16T16:28:47.382Z,97743.38
2022-11-16T16:31:14.802Z,97735.50
2022-11-16T16:33:41.573Z,97738.28
2022-11-16T16:36:11.551Z,97731.59
2022-11-16T16:38:39.042Z,97733.19
2022-11-16T16:41:07.022Z,97745.75
2022-11-16T16:43:34.338Z,97741.84
2022-11-16T16:46:03.218Z,97744.22
2022-11-16T16:48:30.313Z,97737.13
2022-11-16T16:50:57.269Z,97742.63
2022-11-16T16:53:23.973Z,97744.22
2022-11-16T16:55:50.703Z,97745.78
2022-11-16T16:58:17.726Z,97754.44
2022-11-16T17:00:44.518Z,97747.72
2022-11-16T17:03:12.072Z,97752.84
2022-11-16T17:05:38.928Z,97750.47
2022-11-16T17:08:05.922Z,97748.91
2022-11-16T17:10:32.718Z,97748.91
2022-11-16T17:13:02.758Z,97745.34
2022-11-16T17:15:29.739Z,97749.28
2022-11-16T17:17:57.929Z,97759.88
2022-11-16T17:20:24.641Z,97764.59
2022-11-16T17:22:51.362Z,97759.88
2022-11-16T17:25:18.217Z,97754.34
2022-11-16T17:27:44.918Z,97759.84
2022-11-16T17:30:12.537Z,97759.84
2022-11-16T17:32:39.325Z,97759.06
2022-11-16T17:35:06.204Z,97751.19
2022-11-16T17:37:32.995Z,97755.50
2022-11-16T17:39:59.754Z,97751.97
2022-11-16T17:42:26.432Z,97747.25
2022-11-16T17:44:54.081Z,97741.75
2022-11-16T17:47:20.856Z,97744.50
2022-11-16T17:49:47.605Z,97754.31
2022-11-16T17:52:14.406Z,97751.19
2022-11-16T17:54:41.131Z,97748.00
2022-11-16T17:57:07.867Z,97755.84
2022-11-16T17:59:34.628Z,97758.22
2022-11-16T18:02:01.345Z,97756.66
2022-11-16T18:04:28.103Z,97765.31
2022-11-16T18:06:56.056Z,97754.69
2022-11-16T18:09:22.975Z,97762.16
2022-11-16T18:11:49.664Z,97769.63
2022-11-16T18:14:16.463Z,97767.66
2022-11-16T18:16:44.445Z,97760.19
2022-11-16T18:19:16.164Z,97759.81
2022-11-16T18:21:43.824Z,97760.19
2022-11-16T18:24:11.273Z,97760.56
2022-11-16T18:26:39.326Z,97753.88
2022-11-16T18:29:07.193Z,97770.78
2022-11-16T18:31:34.110Z,97764.09
2022-11-16T18:34:01.907Z,97770.00
2022-11-16T18:36:28.661Z,97771.56
2022-11-16T18:38:55.405Z,97768.78
2022-11-16T18:41:25.556Z,97778.22
2022-11-16T18:43:53.724Z,97771.56
2022-11-16T18:46:28.497Z,97766.84
2022-11-16T18:48:57.474Z,97760.13
2022-11-16T18:51:26.188Z,97775.06
2022-11-16T18:53:53.296Z,97771.13
2022-11-16T18:56:20.661Z,97780.94
2022-11-16T18:58:52.195Z,97783.31
2022-11-16T19:01:22.357Z,97780.19
2022-11-16T19:03:49.656Z,97785.69
2022-11-16T19:06:18.023Z,97780.19
2022-11-16T19:08:51.765Z,97775.84
2022-11-16T19:11:22.512Z,97784.13
2022-11-16T19:14:07.708Z,97778.59
2022-11-16T19:16:35.473Z,97775.84
2022-11-16T19:19:02.549Z,97777.06
2022-11-16T19:21:29.570Z,97772.31
2022-11-16T19:23:57.075Z,97780.56
2022-11-16T19:26:26.445Z,97784.13
2022-11-16T19:28:54.066Z,97768.78
2022-11-16T19:31:31.184Z,97781.78
2022-11-16T19:34:00.362Z,97773.50
2022-11-16T19:36:29.464Z,97779.41
2022-11-16T19:38:56.392Z,97774.69
2022-11-16T19:41:24.330Z,97780.19
2022-11-16T19:43:57.206Z,97777.81
2022-11-16T19:46:24.918Z,97781.78
2022-11-16T19:48:52.152Z,97784.53
2022-11-16T19:51:29.854Z,97782.56
2022-11-16T19:53:56.950Z,97783.72
2022-11-16T19:56:24.475Z,97776.66
2022-11-16T19:58:51.753Z,97789.25
2022-11-16T20:01:21.760Z,97776.66
2022-11-16T20:03:49.659Z,97786.50
2022-11-16T20:06:20.066Z,97792.00
2022-11-16T20:08:51.618Z,97790.41
2022-11-16T20:11:20.779Z,97788.88
2022-11-16T20:13:48.876Z,97794.38
2022-11-16T20:16:16.999Z,97794.38
2022-11-16T20:18:44.702Z,97799.88
2022-11-16T20:21:34.475Z,97796.34
2022-11-16T20:24:06.359Z,97790.44
2022-11-16T20:26:35.611Z,97794.00
2022-11-16T20:29:02.931Z,97791.25
2022-11-16T20:31:31.549Z,97786.50
2022-11-16T20:34:03.406Z,97787.28
2022-11-16T20:36:31.804Z,97781.78
2022-11-16T20:38:59.859Z,97792.78
2022-11-16T20:41:32.243Z,97791.25
2022-11-16T20:43:59.762Z,97793.59
2022-11-16T20:46:28.538Z,97787.31
2022-11-16T20:48:57.247Z,97790.06
2022-11-16T20:51:24.187Z,97789.66
2022-11-16T20:53:52.254Z,97790.06
2022-11-16T20:56:19.988Z,97789.69
2022-11-16T20:58:47.474Z,97792.03
2022-11-16T21:01:34.064Z,97795.59
2022-11-16T21:04:03.605Z,97796.41
2022-11-16T21:06:30.814Z,97802.69
2022-11-16T21:08:57.726Z,97804.66
2022-11-16T21:11:28.220Z,97807.44
2022-11-16T21:14:14.062Z,97805.44
2022-11-16T21:16:41.039Z,97800.75
2022-11-16T21:19:08.224Z,97809.41
2022-11-16T21:21:35.137Z,97809.81
2022-11-16T21:24:02.246Z,97809.00
2022-11-16T21:26:30.816Z,97799.97
2022-11-16T21:28:58.713Z,97812.56
2022-11-16T21:31:31.651Z,97812.56
2022-11-16T21:34:00.748Z,97810.19
2022-11-16T21:36:29.785Z,97820.03
2022-11-16T21:38:58.140Z,97815.69
2022-11-16T21:41:25.573Z,97812.56
2022-11-16T21:43:52.417Z,97812.94
2022-11-16T21:46:21.931Z,97815.72
2022-11-16T21:48:48.953Z,97813.38
2022-11-16T21:51:18.277Z,97823.19
2022-11-16T21:53:45.218Z,97816.50
2022-11-16T21:56:15.173Z,97820.84
2022-11-16T21:58:42.601Z,97825.97
2022-11-16T22:01:12.063Z,97839.31
2022-11-16T22:03:39.425Z,97829.06
2022-11-16T22:06:26.815Z,97836.16
2022-11-16T22:08:53.574Z,97831.84
2022-11-16T22:11:22.378Z,97836.97
2022-11-16T22:13:50.049Z,97834.59
2022-11-16T22:16:18.108Z,97840.47
2022-11-16T22:18:45.247Z,97833.00
2022-11-16T22:21:12.066Z,97847.16
2022-11-16T22:23:39.212Z,97844.81
2022-11-16T22:26:08.816Z,97855.03
2022-11-16T22:28:36.443Z,97856.59
2022-11-16T22:31:06.110Z,97855.81
2022-11-16T22:33:34.087Z,97850.69
2022-11-16T22:36:02.604Z,97856.59
2022-11-16T22:38:29.572Z,97864.47
2022-11-16T22:40:57.541Z,97851.88
2022-11-16T22:43:27.204Z,97856.97
2022-11-16T22:46:01.911Z,97849.53
2022-11-16T22:48:31.491Z,97857.38
2022-11-16T22:51:02.861Z,97855.41
2022-11-16T22:53:29.601Z,97857.00
2022-11-16T22:56:03.554Z,97854.25
2022-11-16T22:58:30.320Z,97862.09
2022-11-16T23:00:57.312Z,97863.66
2022-11-16T23:03:25.233Z,97862.88
2022-11-16T23:05:51.984Z,97870.34
2022-11-16T23:08:18.733Z,97871.94
2022-11-16T23:11:04.277Z,97873.09
2022-11-16T23:13:49.864Z,97871.53
2022-11-16T23:16:16.567Z,97862.88
2022-11-16T23:18:43.364Z,97860.50
2022-11-16T23:21:29.586Z,97866.41
2022-11-16T23:24:17.605Z,97868.38
2022-11-16T23:27:04.589Z,97865.25
2022-11-16T23:29:31.342Z,97869.16
2022-11-16T23:31:58.509Z,97881.72
2022-11-16T23:34:25.245Z,97869.97
2022-11-16T23:36:51.988Z,97874.25
2022-11-16T23:39:18.752Z,97878.59
2022-11-16T23:42:03.838Z,97876.63
2022-11-16T23:44:30.644Z,97882.53
2022-11-16T23:46:57.355Z,97893.53
2022-11-16T23:49:24.044Z,97889.22
2022-11-16T23:51:50.760Z,97886.47
2022-11-16T23:54:17.513Z,97898.66
2022-11-16T23:56:44.238Z,97895.53
2022-11-16T23:59:11.101Z,97895.13
